sensor_id;sensor_type;location;lat;lon;timestamp;P1;durP1;ratioP1;P2;durP2;ratioP2
54145;SDS011;65909;49.422;7.738;2023-04-01T00:01:56;3.33;;;1.40;;
54145;SDS011;65909;49.422;7.738;2023-04-01T00:04:22;1.75;;;1.25;;
54145;SDS011;65909;49.422;7.738;2023-04-01T00:06:47;4.70;;;1.35;;
54145;SDS011;65909;49.422;7.738;2023-04-01T00:09:13;7.72;;;1.77;;
54145;SDS011;65909;49.422;7.738;2023-04-01T00:11:39;4.97;;;1.50;;
54145;SDS011;65909;49.422;7.738;2023-04-01T00:14:05;3.50;;;1.23;;
54145;SDS011;65909;49.422;7.738;2023-04-01T00:16:30;4.30;;;1.25;;
54145;SDS011;65909;49.422;7.738;2023-04-01T00:18:56;5.13;;;1.60;;
54145;SDS011;65909;49.422;7.738;2023-04-01T00:21:21;3.30;;;1.20;;
54145;SDS011;65909;49.422;7.738;2023-04-01T00:23:47;2.45;;;1.50;;
54145;SDS011;65909;49.422;7.738;2023-04-01T00:26:14;2.50;;;1.55;;
54145;SDS011;65909;49.422;7.738;2023-04-01T00:28:43;5.13;;;1.70;;
54145;SDS011;65909;49.422;7.738;2023-04-01T00:31:09;4.68;;;1.40;;
54145;SDS011;65909;49.422;7.738;2023-04-01T00:33:35;4.72;;;1.58;;
54145;SDS011;65909;49.422;7.738;2023-04-01T00:36:05;4.28;;;1.15;;
54145;SDS011;65909;49.422;7.738;2023-04-01T00:38:31;6.70;;;1.70;;
54145;SDS011;65909;49.422;7.738;2023-04-01T00:40:57;2.78;;;1.30;;
54145;SDS011;65909;49.422;7.738;2023-04-01T00:43:23;6.28;;;2.08;;
54145;SDS011;65909;49.422;7.738;2023-04-01T00:45:48;5.43;;;1.90;;
54145;SDS011;65909;49.422;7.738;2023-04-01T00:48:18;4.63;;;1.52;;
54145;SDS011;65909;49.422;7.738;2023-04-01T00:50:50;4.20;;;1.38;;
54145;SDS011;65909;49.422;7.738;2023-04-01T00:55:49;3.30;;;1.30;;
54145;SDS011;65909;49.422;7.738;2023-04-01T00:58:18;4.40;;;1.48;;
54145;SDS011;65909;49.422;7.738;2023-04-01T01:00:46;5.22;;;1.20;;
54145;SDS011;65909;49.422;7.738;2023-04-01T01:03:13;3.47;;;1.42;;
54145;SDS011;65909;49.422;7.738;2023-04-01T01:08:15;2.95;;;1.17;;
54145;SDS011;65909;49.422;7.738;2023-04-01T01:10:49;2.78;;;1.27;;
54145;SDS011;65909;49.422;7.738;2023-04-01T01:19:57;2.15;;;1.35;;
54145;SDS011;65909;49.422;7.738;2023-04-01T01:22:08;3.38;;;1.60;;
54145;SDS011;65909;49.422;7.738;2023-04-01T01:24:53;3.60;;;1.30;;
54145;SDS011;65909;49.422;7.738;2023-04-01T01:27:40;4.45;;;1.38;;
54145;SDS011;65909;49.422;7.738;2023-04-01T01:35:48;6.30;;;1.25;;
54145;SDS011;65909;49.422;7.738;2023-04-01T01:38:19;1.60;;;1.33;;
54145;SDS011;65909;49.422;7.738;2023-04-01T01:40:49;2.30;;;1.30;;
54145;SDS011;65909;49.422;7.738;2023-04-01T01:43:19;7.47;;;1.80;;
54145;SDS011;65909;49.422;7.738;2023-04-01T01:45:48;4.80;;;1.80;;
54145;SDS011;65909;49.422;7.738;2023-04-01T01:48:17;3.38;;;1.73;;
54145;SDS011;65909;49.422;7.738;2023-04-01T01:50:44;5.43;;;3.05;;
54145;SDS011;65909;49.422;7.738;2023-04-01T01:53:12;3.08;;;1.50;;
54145;SDS011;65909;49.422;7.738;2023-04-01T01:55:44;6.13;;;1.98;;
54145;SDS011;65909;49.422;7.738;2023-04-01T01:58:19;3.17;;;1.27;;
54145;SDS011;65909;49.422;7.738;2023-04-01T02:00:50;3.35;;;1.10;;
54145;SDS011;65909;49.422;7.738;2023-04-01T02:03:19;5.35;;;1.40;;
54145;SDS011;65909;49.422;7.738;2023-04-01T02:05:48;2.95;;;1.10;;
54145;SDS011;65909;49.422;7.738;2023-04-01T02:08:18;2.05;;;1.00;;
54145;SDS011;65909;49.422;7.738;2023-04-01T02:10:53;2.25;;;1.25;;
54145;SDS011;65909;49.422;7.738;2023-04-01T02:13:33;3.35;;;1.10;;
54145;SDS011;65909;49.422;7.738;2023-04-01T02:16:04;4.90;;;1.42;;
54145;SDS011;65909;49.422;7.738;2023-04-01T02:18:33;6.82;;;1.30;;
54145;SDS011;65909;49.422;7.738;2023-04-01T02:21:02;2.90;;;0.80;;
54145;SDS011;65909;49.422;7.738;2023-04-01T02:23:30;5.38;;;0.95;;
54145;SDS011;65909;49.422;7.738;2023-04-01T02:25:58;4.63;;;1.42;;
54145;SDS011;65909;49.422;7.738;2023-04-01T02:28:24;2.17;;;1.15;;
54145;SDS011;65909;49.422;7.738;2023-04-01T02:30:51;3.42;;;1.00;;
54145;SDS011;65909;49.422;7.738;2023-04-01T02:33:17;5.82;;;1.05;;
54145;SDS011;65909;49.422;7.738;2023-04-01T02:35:44;5.47;;;1.23;;
54145;SDS011;65909;49.422;7.738;2023-04-01T02:38:09;4.95;;;1.27;;
54145;SDS011;65909;49.422;7.738;2023-04-01T02:40:45;3.05;;;1.13;;
54145;SDS011;65909;49.422;7.738;2023-04-01T02:43:13;5.25;;;1.20;;
54145;SDS011;65909;49.422;7.738;2023-04-01T02:45:39;4.63;;;1.55;;
54145;SDS011;65909;49.422;7.738;2023-04-01T02:48:04;7.63;;;1.55;;
54145;SDS011;65909;49.422;7.738;2023-04-01T02:50:30;2.28;;;1.77;;
54145;SDS011;65909;49.422;7.738;2023-04-01T02:52:55;3.90;;;1.33;;
54145;SDS011;65909;49.422;7.738;2023-04-01T02:55:21;2.45;;;1.15;;
54145;SDS011;65909;49.422;7.738;2023-04-01T02:57:46;2.15;;;1.20;;
54145;SDS011;65909;49.422;7.738;2023-04-01T03:00:12;2.78;;;1.10;;
54145;SDS011;65909;49.422;7.738;2023-04-01T03:02:38;3.70;;;1.20;;
54145;SDS011;65909;49.422;7.738;2023-04-01T03:05:04;6.22;;;1.65;;
54145;SDS011;65909;49.422;7.738;2023-04-01T03:07:30;2.00;;;1.00;;
54145;SDS011;65909;49.422;7.738;2023-04-01T03:09:56;2.33;;;0.75;;
54145;SDS011;65909;49.422;7.738;2023-04-01T03:12:21;5.75;;;2.05;;
54145;SDS011;65909;49.422;7.738;2023-04-01T03:14:47;4.10;;;1.30;;
54145;SDS011;65909;49.422;7.738;2023-04-01T03:17:12;3.35;;;1.00;;
54145;SDS011;65909;49.422;7.738;2023-04-01T03:19:38;3.72;;;1.00;;
54145;SDS011;65909;49.422;7.738;2023-04-01T03:22:03;2.80;;;1.10;;
54145;SDS011;65909;49.422;7.738;2023-04-01T03:24:28;3.35;;;1.20;;
54145;SDS011;65909;49.422;7.738;2023-04-01T03:26:54;3.08;;;1.30;;
54145;SDS011;65909;49.422;7.738;2023-04-01T03:29:19;3.90;;;1.15;;
54145;SDS011;65909;49.422;7.738;2023-04-01T03:31:45;4.97;;;1.40;;
54145;SDS011;65909;49.422;7.738;2023-04-01T03:34:10;4.28;;;1.20;;
54145;SDS011;65909;49.422;7.738;2023-04-01T03:36:35;1.75;;;1.00;;
54145;SDS011;65909;49.422;7.738;2023-04-01T03:39:01;5.70;;;1.30;;
54145;SDS011;65909;49.422;7.738;2023-04-01T03:41:28;11.38;;;1.55;;
54145;SDS011;65909;49.422;7.738;2023-04-01T03:43:54;2.85;;;1.10;;
54145;SDS011;65909;49.422;7.738;2023-04-01T03:46:19;4.82;;;1.27;;
54145;SDS011;65909;49.422;7.738;2023-04-01T03:48:45;4.35;;;1.10;;
54145;SDS011;65909;49.422;7.738;2023-04-01T03:51:10;2.53;;;1.50;;
54145;SDS011;65909;49.422;7.738;2023-04-01T03:53:36;7.00;;;1.40;;
54145;SDS011;65909;49.422;7.738;2023-04-01T03:56:05;2.78;;;1.30;;
54145;SDS011;65909;49.422;7.738;2023-04-01T03:58:31;3.10;;;1.27;;
54145;SDS011;65909;49.422;7.738;2023-04-01T04:00:56;5.68;;;2.55;;
54145;SDS011;65909;49.422;7.738;2023-04-01T04:03:21;5.43;;;2.35;;
54145;SDS011;65909;49.422;7.738;2023-04-01T04:05:48;4.10;;;1.30;;
54145;SDS011;65909;49.422;7.738;2023-04-01T04:08:14;1.33;;;1.00;;
54145;SDS011;65909;49.422;7.738;2023-04-01T04:10:39;4.10;;;1.20;;
54145;SDS011;65909;49.422;7.738;2023-04-01T04:13:06;2.58;;;0.88;;
54145;SDS011;65909;49.422;7.738;2023-04-01T04:15:31;4.55;;;1.70;;
54145;SDS011;65909;49.422;7.738;2023-04-01T04:17:58;3.25;;;1.67;;
54145;SDS011;65909;49.422;7.738;2023-04-01T04:20:23;1.88;;;1.17;;
54145;SDS011;65909;49.422;7.738;2023-04-01T04:22:48;5.45;;;1.67;;
54145;SDS011;65909;49.422;7.738;2023-04-01T04:25:14;3.55;;;1.27;;
54145;SDS011;65909;49.422;7.738;2023-04-01T04:27:39;3.50;;;1.77;;
54145;SDS011;65909;49.422;7.738;2023-04-01T04:30:05;5.13;;;1.63;;
54145;SDS011;65909;49.422;7.738;2023-04-01T04:32:31;5.30;;;1.42;;
54145;SDS011;65909;49.422;7.738;2023-04-01T04:34:57;2.42;;;1.10;;
54145;SDS011;65909;49.422;7.738;2023-04-01T04:37:22;3.80;;;1.20;;
54145;SDS011;65909;49.422;7.738;2023-04-01T04:39:47;3.72;;;1.20;;
54145;SDS011;65909;49.422;7.738;2023-04-01T04:42:13;6.00;;;1.40;;
54145;SDS011;65909;49.422;7.738;2023-04-01T04:44:38;5.18;;;1.58;;
54145;SDS011;65909;49.422;7.738;2023-04-01T04:47:04;1.38;;;1.08;;
54145;SDS011;65909;49.422;7.738;2023-04-01T04:49:30;4.80;;;1.10;;
54145;SDS011;65909;49.422;7.738;2023-04-01T04:51:55;4.47;;;1.38;;
54145;SDS011;65909;49.422;7.738;2023-04-01T04:54:20;3.42;;;1.10;;
54145;SDS011;65909;49.422;7.738;2023-04-01T04:56:46;6.13;;;1.27;;
54145;SDS011;65909;49.422;7.738;2023-04-01T04:59:11;7.47;;;1.88;;
54145;SDS011;65909;49.422;7.738;2023-04-01T05:01:37;4.10;;;1.30;;
54145;SDS011;65909;49.422;7.738;2023-04-01T05:04:03;3.92;;;1.48;;
54145;SDS011;65909;49.422;7.738;2023-04-01T05:06:29;2.15;;;1.02;;
54145;SDS011;65909;49.422;7.738;2023-04-01T05:08:54;2.35;;;1.85;;
54145;SDS011;65909;49.422;7.738;2023-04-01T05:11:21;3.55;;;1.38;;
54145;SDS011;65909;49.422;7.738;2023-04-01T05:13:46;5.03;;;1.15;;
54145;SDS011;65909;49.422;7.738;2023-04-01T05:16:13;2.22;;;1.05;;
54145;SDS011;65909;49.422;7.738;2023-04-01T05:18:40;4.22;;;1.10;;
54145;SDS011;65909;49.422;7.738;2023-04-01T05:21:07;1.75;;;1.13;;
54145;SDS011;65909;49.422;7.738;2023-04-01T05:23:33;4.28;;;1.30;;
54145;SDS011;65909;49.422;7.738;2023-04-01T05:26:02;4.53;;;1.00;;
54145;SDS011;65909;49.422;7.738;2023-04-01T05:28:35;3.55;;;1.38;;
54145;SDS011;65909;49.422;7.738;2023-04-01T05:31:01;6.38;;;1.92;;
54145;SDS011;65909;49.422;7.738;2023-04-01T05:33:29;6.30;;;1.50;;
54145;SDS011;65909;49.422;7.738;2023-04-01T05:35:55;3.60;;;1.38;;
54145;SDS011;65909;49.422;7.738;2023-04-01T05:38:20;2.35;;;1.02;;
54145;SDS011;65909;49.422;7.738;2023-04-01T05:40:46;3.78;;;1.25;;
54145;SDS011;65909;49.422;7.738;2023-04-01T05:43:11;4.32;;;1.27;;
54145;SDS011;65909;49.422;7.738;2023-04-01T05:45:37;5.57;;;1.15;;
54145;SDS011;65909;49.422;7.738;2023-04-01T05:48:02;5.45;;;1.65;;
54145;SDS011;65909;49.422;7.738;2023-04-01T05:50:28;3.97;;;1.40;;
54145;SDS011;65909;49.422;7.738;2023-04-01T05:52:53;4.85;;;1.98;;
54145;SDS011;65909;49.422;7.738;2023-04-01T05:55:19;2.50;;;1.25;;
54145;SDS011;65909;49.422;7.738;2023-04-01T05:57:45;3.92;;;1.00;;
54145;SDS011;65909;49.422;7.738;2023-04-01T06:00:11;1.52;;;0.98;;
54145;SDS011;65909;49.422;7.738;2023-04-01T06:02:37;5.35;;;1.40;;
54145;SDS011;65909;49.422;7.738;2023-04-01T06:05:11;3.70;;;1.15;;
54145;SDS011;65909;49.422;7.738;2023-04-01T06:07:38;4.68;;;1.35;;
54145;SDS011;65909;49.422;7.738;2023-04-01T06:10:08;2.13;;;0.88;;
54145;SDS011;65909;49.422;7.738;2023-04-01T06:17:55;2.88;;;1.25;;
54145;SDS011;65909;49.422;7.738;2023-04-01T06:23:32;5.32;;;1.30;;
54145;SDS011;65909;49.422;7.738;2023-04-01T06:28:46;1.60;;;1.30;;
54145;SDS011;65909;49.422;7.738;2023-04-01T06:34:17;2.83;;;1.25;;
54145;SDS011;65909;49.422;7.738;2023-04-01T06:48:37;3.90;;;1.08;;
54145;SDS011;65909;49.422;7.738;2023-04-01T06:51:34;3.30;;;0.95;;
54145;SDS011;65909;49.422;7.738;2023-04-01T06:56:45;1.65;;;0.80;;
54145;SDS011;65909;49.422;7.738;2023-04-01T06:59:16;1.70;;;0.80;;
54145;SDS011;65909;49.422;7.738;2023-04-01T07:01:49;2.97;;;1.05;;
54145;SDS011;65909;49.422;7.738;2023-04-01T07:10:05;2.00;;;1.10;;
54145;SDS011;65909;49.422;7.738;2023-04-01T07:12:53;1.83;;;0.90;;
54145;SDS011;65909;49.422;7.738;2023-04-01T07:15:24;1.38;;;0.88;;
54145;SDS011;65909;49.422;7.738;2023-04-01T07:17:55;4.78;;;1.05;;
54145;SDS011;65909;49.422;7.738;2023-04-01T07:20:28;3.10;;;1.92;;
54145;SDS011;65909;49.422;7.738;2023-04-01T07:22:57;1.75;;;0.80;;
54145;SDS011;65909;49.422;7.738;2023-04-01T07:25:29;3.17;;;1.35;;
54145;SDS011;65909;49.422;7.738;2023-04-01T07:28:03;1.95;;;0.80;;
54145;SDS011;65909;49.422;7.738;2023-04-01T07:30:46;2.58;;;0.68;;
54145;SDS011;65909;49.422;7.738;2023-04-01T07:33:50;5.50;;;1.30;;
54145;SDS011;65909;49.422;7.738;2023-04-01T07:45:03;3.30;;;0.82;;
54145;SDS011;65909;49.422;7.738;2023-04-01T07:50:41;0.93;;;0.80;;
54145;SDS011;65909;49.422;7.738;2023-04-01T07:53:22;1.02;;;0.60;;
54145;SDS011;65909;49.422;7.738;2023-04-01T07:56:12;7.03;;;0.88;;
54145;SDS011;65909;49.422;7.738;2023-04-01T08:07:07;2.00;;;1.00;;
54145;SDS011;65909;49.422;7.738;2023-04-01T08:09:51;0.93;;;0.77;;
54145;SDS011;65909;49.422;7.738;2023-04-01T08:20:47;0.63;;;0.63;;
54145;SDS011;65909;49.422;7.738;2023-04-01T08:23:22;3.45;;;0.80;;
54145;SDS011;65909;49.422;7.738;2023-04-01T08:26:11;1.35;;;0.80;;
54145;SDS011;65909;49.422;7.738;2023-04-01T08:33:50;1.70;;;0.60;;
54145;SDS011;65909;49.422;7.738;2023-04-01T08:36:20;0.98;;;0.70;;
54145;SDS011;65909;49.422;7.738;2023-04-01T08:38:57;1.50;;;0.70;;
54145;SDS011;65909;49.422;7.738;2023-04-01T08:44:30;2.53;;;0.90;;
54145;SDS011;65909;49.422;7.738;2023-04-01T08:52:37;1.38;;;0.60;;
54145;SDS011;65909;49.422;7.738;2023-04-01T08:55:19;1.45;;;0.77;;
54145;SDS011;65909;49.422;7.738;2023-04-01T08:58:04;1.75;;;0.60;;
54145;SDS011;65909;49.422;7.738;2023-04-01T09:00:39;0.85;;;0.50;;
54145;SDS011;65909;49.422;7.738;2023-04-01T09:09:02;1.27;;;0.80;;
54145;SDS011;65909;49.422;7.738;2023-04-01T09:17:08;3.50;;;0.80;;
54145;SDS011;65909;49.422;7.738;2023-04-01T09:22:36;1.88;;;1.10;;
54145;SDS011;65909;49.422;7.738;2023-04-01T09:36:46;0.82;;;0.68;;
54145;SDS011;65909;49.422;7.738;2023-04-01T09:45:01;1.10;;;0.88;;
54145;SDS011;65909;49.422;7.738;2023-04-01T10:04:17;1.17;;;0.70;;
54145;SDS011;65909;49.422;7.738;2023-04-01T10:09:47;1.00;;;0.88;;
54145;SDS011;65909;49.422;7.738;2023-04-01T10:15:53;1.85;;;0.70;;
54145;SDS011;65909;49.422;7.738;2023-04-01T10:24:33;1.40;;;0.93;;
54145;SDS011;65909;49.422;7.738;2023-04-01T10:30:29;1.20;;;0.80;;
54145;SDS011;65909;49.422;7.738;2023-04-01T10:39:33;0.75;;;0.75;;
54145;SDS011;65909;49.422;7.738;2023-04-01T10:56:13;1.42;;;0.95;;
54145;SDS011;65909;49.422;7.738;2023-04-01T11:19:02;1.13;;;0.80;;
54145;SDS011;65909;49.422;7.738;2023-04-01T11:21:50;0.90;;;0.80;;
54145;SDS011;65909;49.422;7.738;2023-04-01T11:27:25;4.10;;;1.10;;
54145;SDS011;65909;49.422;7.738;2023-04-01T11:33:06;1.48;;;1.00;;
54145;SDS011;65909;49.422;7.738;2023-04-01T11:38:15;2.28;;;0.80;;
54145;SDS011;65909;49.422;7.738;2023-04-01T11:40:51;1.00;;;0.90;;
54145;SDS011;65909;49.422;7.738;2023-04-01T11:43:37;1.35;;;0.80;;
54145;SDS011;65909;49.422;7.738;2023-04-01T11:54:45;0.82;;;0.70;;
54145;SDS011;65909;49.422;7.738;2023-04-01T12:00:31;1.08;;;0.98;;
54145;SDS011;65909;49.422;7.738;2023-04-01T12:06:16;0.77;;;0.77;;
54145;SDS011;65909;49.422;7.738;2023-04-01T12:12:12;1.50;;;1.08;;
54145;SDS011;65909;49.422;7.738;2023-04-01T12:17:39;1.02;;;0.70;;
54145;SDS011;65909;49.422;7.738;2023-04-01T12:23:13;0.70;;;0.70;;
54145;SDS011;65909;49.422;7.738;2023-04-01T12:25:57;1.42;;;0.65;;
54145;SDS011;65909;49.422;7.738;2023-04-01T12:42:44;0.95;;;0.73;;
54145;SDS011;65909;49.422;7.738;2023-04-01T12:54:05;3.78;;;1.00;;
54145;SDS011;65909;49.422;7.738;2023-04-01T12:57:06;1.30;;;1.00;;
54145;SDS011;65909;49.422;7.738;2023-04-01T12:59:43;0.88;;;0.80;;
54145;SDS011;65909;49.422;7.738;2023-04-01T13:13:29;0.63;;;0.60;;
54145;SDS011;65909;49.422;7.738;2023-04-01T13:16:11;0.88;;;0.80;;
54145;SDS011;65909;49.422;7.738;2023-04-01T13:21:29;0.70;;;0.70;;
54145;SDS011;65909;49.422;7.738;2023-04-01T13:35:03;0.70;;;0.70;;
54145;SDS011;65909;49.422;7.738;2023-04-01T13:40:28;1.08;;;0.90;;
54145;SDS011;65909;49.422;7.738;2023-04-01T13:52:33;1.38;;;0.98;;
54145;SDS011;65909;49.422;7.738;2023-04-01T13:55:54;1.85;;;1.10;;
54145;SDS011;65909;49.422;7.738;2023-04-01T13:58:23;1.25;;;0.88;;
54145;SDS011;65909;49.422;7.738;2023-04-01T14:01:19;0.90;;;0.90;;
54145;SDS011;65909;49.422;7.738;2023-04-01T14:04:03;1.52;;;0.85;;
54145;SDS011;65909;49.422;7.738;2023-04-01T14:06:37;1.40;;;0.98;;
54145;SDS011;65909;49.422;7.738;2023-04-01T14:12:04;1.20;;;0.82;;
54145;SDS011;65909;49.422;7.738;2023-04-01T14:14:43;0.60;;;0.60;;
54145;SDS011;65909;49.422;7.738;2023-04-01T14:17:24;0.60;;;0.60;;
54145;SDS011;65909;49.422;7.738;2023-04-01T14:20:37;0.95;;;0.70;;
54145;SDS011;65909;49.422;7.738;2023-04-01T14:26:03;1.27;;;0.65;;
54145;SDS011;65909;49.422;7.738;2023-04-01T14:34:00;1.30;;;0.70;;
54145;SDS011;65909;49.422;7.738;2023-04-01T14:42:36;2.63;;;0.70;;
54145;SDS011;65909;49.422;7.738;2023-04-01T14:45:17;1.15;;;0.73;;
54145;SDS011;65909;49.422;7.738;2023-04-01T14:53:12;3.85;;;0.95;;
54145;SDS011;65909;49.422;7.738;2023-04-01T14:55:57;1.40;;;0.70;;
54145;SDS011;65909;49.422;7.738;2023-04-01T14:58:40;1.07;;;0.73;;
54145;SDS011;65909;49.422;7.738;2023-04-01T15:01:31;1.02;;;0.65;;
54145;SDS011;65909;49.422;7.738;2023-04-01T15:04:09;1.13;;;0.77;;
54145;SDS011;65909;49.422;7.738;2023-04-01T15:07:00;0.68;;;0.68;;
54145;SDS011;65909;49.422;7.738;2023-04-01T15:10:20;0.60;;;0.60;;
54145;SDS011;65909;49.422;7.738;2023-04-01T15:35:00;0.68;;;0.68;;
54145;SDS011;65909;49.422;7.738;2023-04-01T15:38:29;1.10;;;0.75;;
54145;SDS011;65909;49.422;7.738;2023-04-01T15:40:59;0.85;;;0.70;;
54145;SDS011;65909;49.422;7.738;2023-04-01T15:53:54;1.17;;;0.90;;
54145;SDS011;65909;49.422;7.738;2023-04-01T15:56:40;0.93;;;0.80;;
54145;SDS011;65909;49.422;7.738;2023-04-01T16:12:41;0.93;;;0.70;;
54145;SDS011;65909;49.422;7.738;2023-04-01T16:23:49;0.77;;;0.70;;
54145;SDS011;65909;49.422;7.738;2023-04-01T16:26:39;1.88;;;0.68;;
54145;SDS011;65909;49.422;7.738;2023-04-01T16:37:54;1.27;;;0.80;;
54145;SDS011;65909;49.422;7.738;2023-04-01T16:43:42;1.10;;;0.73;;
54145;SDS011;65909;49.422;7.738;2023-04-01T16:51:44;0.50;;;0.50;;
54145;SDS011;65909;49.422;7.738;2023-04-01T16:59:46;0.77;;;0.70;;
54145;SDS011;65909;49.422;7.738;2023-04-01T17:02:18;1.63;;;0.80;;
54145;SDS011;65909;49.422;7.738;2023-04-01T17:13:18;0.82;;;0.63;;
54145;SDS011;65909;49.422;7.738;2023-04-01T17:16:10;1.60;;;0.80;;
54145;SDS011;65909;49.422;7.738;2023-04-01T17:38:02;0.60;;;0.50;;
54145;SDS011;65909;49.422;7.738;2023-04-01T17:45:57;0.60;;;0.60;;
54145;SDS011;65909;49.422;7.738;2023-04-01T17:51:11;0.75;;;0.70;;
54145;SDS011;65909;49.422;7.738;2023-04-01T17:53:51;1.45;;;0.80;;
54145;SDS011;65909;49.422;7.738;2023-04-01T17:56:42;2.80;;;1.05;;
54145;SDS011;65909;49.422;7.738;2023-04-01T17:59:49;1.65;;;0.90;;
54145;SDS011;65909;49.422;7.738;2023-04-01T18:05:02;0.75;;;0.70;;
54145;SDS011;65909;49.422;7.738;2023-04-01T18:16:11;3.15;;;1.05;;
54145;SDS011;65909;49.422;7.738;2023-04-01T18:21:47;1.05;;;0.95;;
54145;SDS011;65909;49.422;7.738;2023-04-01T18:24:26;3.35;;;1.15;;
54145;SDS011;65909;49.422;7.738;2023-04-01T18:27:07;1.40;;;1.02;;
54145;SDS011;65909;49.422;7.738;2023-04-01T18:32:15;4.00;;;1.25;;
54145;SDS011;65909;49.422;7.738;2023-04-01T18:35:08;1.90;;;1.38;;
54145;SDS011;65909;49.422;7.738;2023-04-01T18:40:43;2.15;;;1.05;;
54145;SDS011;65909;49.422;7.738;2023-04-01T18:43:21;1.38;;;1.15;;
54145;SDS011;65909;49.422;7.738;2023-04-01T18:45:59;4.10;;;1.05;;
54145;SDS011;65909;49.422;7.738;2023-04-01T18:54:23;2.97;;;1.27;;
54145;SDS011;65909;49.422;7.738;2023-04-01T18:57:13;1.55;;;1.20;;
54145;SDS011;65909;49.422;7.738;2023-04-01T19:02:38;2.13;;;1.23;;
54145;SDS011;65909;49.422;7.738;2023-04-01T19:05:18;1.50;;;1.23;;
54145;SDS011;65909;49.422;7.738;2023-04-01T19:07:52;2.03;;;1.42;;
54145;SDS011;65909;49.422;7.738;2023-04-01T19:10:34;1.90;;;1.40;;
54145;SDS011;65909;49.422;7.738;2023-04-01T19:27:03;2.95;;;1.17;;
54145;SDS011;65909;49.422;7.738;2023-04-01T19:29:56;2.55;;;1.60;;
54145;SDS011;65909;49.422;7.738;2023-04-01T19:35:41;1.38;;;1.20;;
54145;SDS011;65909;49.422;7.738;2023-04-01T19:41:14;1.58;;;1.20;;
54145;SDS011;65909;49.422;7.738;2023-04-01T19:46:42;1.35;;;1.25;;
54145;SDS011;65909;49.422;7.738;2023-04-01T19:49:51;1.88;;;1.15;;
54145;SDS011;65909;49.422;7.738;2023-04-01T19:52:45;2.17;;;1.30;;
54145;SDS011;65909;49.422;7.738;2023-04-01T19:55:27;2.17;;;1.33;;
54145;SDS011;65909;49.422;7.738;2023-04-01T20:00:43;1.83;;;1.38;;
54145;SDS011;65909;49.422;7.738;2023-04-01T20:06:01;3.90;;;1.92;;
54145;SDS011;65909;49.422;7.738;2023-04-01T20:11:14;2.17;;;1.90;;
54145;SDS011;65909;49.422;7.738;2023-04-01T20:19:15;4.15;;;1.63;;
54145;SDS011;65909;49.422;7.738;2023-04-01T20:21:50;1.40;;;1.27;;
54145;SDS011;65909;49.422;7.738;2023-04-01T20:24:17;2.60;;;1.33;;
54145;SDS011;65909;49.422;7.738;2023-04-01T20:26:50;1.70;;;1.50;;
54145;SDS011;65909;49.422;7.738;2023-04-01T20:29:30;2.40;;;1.50;;
54145;SDS011;65909;49.422;7.738;2023-04-01T20:32:05;2.13;;;1.50;;
54145;SDS011;65909;49.422;7.738;2023-04-01T20:34:40;3.05;;;1.40;;
54145;SDS011;65909;49.422;7.738;2023-04-01T20:40:37;2.03;;;1.40;;
54145;SDS011;65909;49.422;7.738;2023-04-01T20:49:01;2.63;;;1.77;;
54145;SDS011;65909;49.422;7.738;2023-04-01T20:51:53;2.05;;;1.65;;
54145;SDS011;65909;49.422;7.738;2023-04-01T20:54:31;1.52;;;1.23;;
54145;SDS011;65909;49.422;7.738;2023-04-01T20:57:17;1.08;;;0.95;;
54145;SDS011;65909;49.422;7.738;2023-04-01T21:21:59;3.40;;;2.03;;
54145;SDS011;65909;49.422;7.738;2023-04-01T21:29:52;2.95;;;1.88;;
54145;SDS011;65909;49.422;7.738;2023-04-01T21:32:29;2.78;;;1.80;;
54145;SDS011;65909;49.422;7.738;2023-04-01T21:35:07;2.38;;;1.80;;
54145;SDS011;65909;49.422;7.738;2023-04-01T21:37:45;3.75;;;1.80;;
54145;SDS011;65909;49.422;7.738;2023-04-01T21:40:25;5.55;;;2.25;;
54145;SDS011;65909;49.422;7.738;2023-04-01T21:45:44;3.85;;;2.22;;
54145;SDS011;65909;49.422;7.738;2023-04-01T21:48:37;2.70;;;2.15;;
54145;SDS011;65909;49.422;7.738;2023-04-01T21:54:40;5.35;;;2.92;;
54145;SDS011;65909;49.422;7.738;2023-04-01T21:57:48;3.08;;;2.17;;
54145;SDS011;65909;49.422;7.738;2023-04-01T22:09:29;5.20;;;2.47;;
54145;SDS011;65909;49.422;7.738;2023-04-01T22:17:23;4.18;;;2.50;;
54145;SDS011;65909;49.422;7.738;2023-04-01T22:31:07;3.42;;;2.42;;
54145;SDS011;65909;49.422;7.738;2023-04-01T22:33:56;3.47;;;2.53;;
54145;SDS011;65909;49.422;7.738;2023-04-01T22:44:42;3.83;;;2.58;;
54145;SDS011;65909;49.422;7.738;2023-04-01T22:49:47;3.92;;;2.83;;
54145;SDS011;65909;49.422;7.738;2023-04-01T22:55:02;2.92;;;2.42;;
54145;SDS011;65909;49.422;7.738;2023-04-01T22:57:39;4.88;;;2.60;;
54145;SDS011;65909;49.422;7.738;2023-04-01T23:00:16;4.80;;;2.40;;
54145;SDS011;65909;49.422;7.738;2023-04-01T23:05:34;4.07;;;2.22;;
54145;SDS011;65909;49.422;7.738;2023-04-01T23:10:55;2.58;;;2.08;;
54145;SDS011;65909;49.422;7.738;2023-04-01T23:13:28;2.50;;;2.30;;
54145;SDS011;65909;49.422;7.738;2023-04-01T23:15:59;3.63;;;2.72;;
54145;SDS011;65909;49.422;7.738;2023-04-01T23:23:45;6.73;;;3.17;;
54145;SDS011;65909;49.422;7.738;2023-04-01T23:29:00;2.70;;;2.45;;
54145;SDS011;65909;49.422;7.738;2023-04-01T23:33:55;4.57;;;2.90;;
54145;SDS011;65909;49.422;7.738;2023-04-01T23:36:23;7.03;;;3.10;;
54145;SDS011;65909;49.422;7.738;2023-04-01T23:38:49;5.22;;;3.10;;
54145;SDS011;65909;49.422;7.738;2023-04-01T23:41:20;3.50;;;2.58;;
54145;SDS011;65909;49.422;7.738;2023-04-01T23:44:04;4.30;;;2.63;;
54145;SDS011;65909;49.422;7.738;2023-04-01T23:46:34;5.32;;;2.88;;
54145;SDS011;65909;49.422;7.738;2023-04-01T23:49:00;6.50;;;2.90;;
54145;SDS011;65909;49.422;7.738;2023-04-01T23:51:28;3.70;;;2.78;;
54145;SDS011;65909;49.422;7.738;2023-04-01T23:54:47;3.43;;;2.83;;
54145;SDS011;65909;49.422;7.738;2023-04-01T23:57:14;4.97;;;3.05;;
54145;SDS011;65909;49.422;7.738;2023-04-01T23:59:43;6.60;;;2.85;;
